Time;durP1;ratioP1;P1;durP2;ratioP2;P2;SDS_P1;SDS_P2;PMS_P1;PMS_P2;Temp;Humidity;BMP_temperature;BMP_pressure;BME280_temperature;BME280_humidity;BME280_pressure;Samples;Min_cycle;Max_cycle;Signal;HPM_P1;HPM_P2
2022/02/04 00:20:37;;;;;;;;;73.25;52.75;;;;;;;;5061076;28;51258;-49
2022/02/04 00:23:26;;;;;;;;;67.75;51.50;;;;;;;;5061385;28;51195;-49
2022/02/04 00:26:17;;;;;;;;;69.25;50.50;;;;;;;;5057721;28;51613;-46
2022/02/04 00:29:25;;;;;;;;;66.25;50.50;;;;;;;;5061461;28;51021;-48
2022/02/04 00:32:11;;;;;;;;;67.25;51.00;;;;;;;;5061077;28;51186;-49
2022/02/04 00:35:08;;;;;;;;;65.50;51.25;;;;;;;;5057982;28;51158;-46
2022/02/04 00:38:00;;;;;;;;;63.25;51.25;;;;;;;;5060600;28;51176;-50
2022/02/04 00:40:48;;;;;;;;;65.25;50.50;;;;;;;;5057251;28;51159;-55
2022/02/04 00:43:33;;;;;;;;;66.75;50.50;;;;;;;;5053900;28;51473;-53
2022/02/04 00:46:53;;;;;;;;;55.25;44.00;;;;;;;;5054650;28;51252;-50
2022/02/04 00:49:35;;;;;;;;;67.25;49.25;;;;;;;;5051514;28;51277;-50
2022/02/04 00:52:33;;;;;;;;;66.00;47.25;;;;;;;;5055616;28;51033;-49
2022/02/04 01:13:16;;;;;;;;;65.50;46.50;;;;;;;;5049610;28;51051;-50
2022/02/04 01:30:03;;;;;;;;;62.25;43.75;;;;;;;;4713185;30;51617;-54
2022/02/04 01:32:47;;;;;;;;;61.00;46.75;;;;;;;;4703287;30;51210;-53
2022/02/04 01:35:31;;;;;;;;;62.75;45.25;;;;;;;;4753406;29;51634;-49
2022/02/04 01:38:16;;;;;;;;;60.75;45.50;;;;;;;;4754019;29;51017;-51
2022/02/04 01:41:00;;;;;;;;;64.75;46.75;;;;;;;;4753884;29;51202;-47
2022/02/04 01:43:44;;;;;;;;;61.50;47.50;;;;;;;;4753958;29;52493;-49
2022/02/04 01:46:28;;;;;;;;;57.25;44.75;;;;;;;;4757214;29;51658;-46
2022/02/04 01:49:12;;;;;;;;;62.25;47.75;;;;;;;;4771465;29;51197;-49
2022/02/04 01:51:57;;;;;;;;;61.75;45.25;;;;;;;;4771627;29;51025;-46
2022/02/04 01:54:41;;;;;;;;;61.00;46.75;;;;;;;;4771181;29;51099;-49
2022/02/04 01:57:25;;;;;;;;;61.50;46.75;;;;;;;;4826101;29;51319;-46
2022/02/04 02:00:10;;;;;;;;;63.50;48.50;;;;;;;;4852090;29;51165;-49
2022/02/04 02:02:54;;;;;;;;;59.25;47.50;;;;;;;;4891593;28;51074;-50
2022/02/04 02:05:38;;;;;;;;;63.50;48.50;;;;;;;;4935354;28;51106;-46
2022/02/04 02:08:23;;;;;;;;;66.75;47.25;;;;;;;;5029034;28;51296;-48
2022/02/04 02:11:09;;;;;;;;;63.25;48.00;;;;;;;;5024182;28;51702;-51
2022/02/04 02:13:54;;;;;;;;;64.75;47.00;;;;;;;;5038891;28;51095;-55
2022/02/04 02:38:28;;;;;;;;;57.75;42.00;;;;;;;;5038459;28;51793;-50
2022/02/04 02:47:08;;;;;;;;;52.25;43.00;;;;;;;;5030694;28;51970;-51
2022/02/04 02:55:42;;;;;;;;;58.25;42.00;;;;;;;;5028905;28;51185;-47
2022/02/04 02:58:29;;;;;;;;;55.75;42.50;;;;;;;;5038654;28;51185;-51
2022/02/04 03:01:13;;;;;;;;;55.00;41.00;;;;;;;;5031131;28;51132;-50
2022/02/04 03:04:02;;;;;;;;;56.75;43.75;;;;;;;;5030195;28;51400;-53
2022/02/04 03:06:47;;;;;;;;;54.50;40.50;;;;;;;;5035570;28;51130;-47
2022/02/04 03:09:32;;;;;;;;;56.75;43.75;;;;;;;;5039033;28;51167;-54
2022/02/04 03:12:16;;;;;;;;;59.50;44.50;;;;;;;;5037802;28;51149;-53
2022/02/04 03:15:01;;;;;;;;;57.75;43.25;;;;;;;;5032601;28;51097;-46
2022/02/04 03:17:48;;;;;;;;;62.50;44.75;;;;;;;;5035406;28;51719;-51
2022/02/04 03:20:47;;;;;;;;;56.75;41.75;;;;;;;;5029620;28;51210;-52
2022/02/04 03:23:34;;;;;;;;;55.25;41.00;;;;;;;;5036154;28;51438;-49
2022/02/04 03:29:11;;;;;;;;;55.50;43.50;;;;;;;;5029078;28;51106;-50
2022/02/04 03:32:03;;;;;;;;;56.75;45.75;;;;;;;;5034954;28;51200;-53
2022/02/04 03:34:47;;;;;;;;;60.00;44.25;;;;;;;;5042203;28;51169;-52
2022/02/04 03:37:32;;;;;;;;;54.75;43.25;;;;;;;;5034722;28;51554;-48
2022/02/04 03:40:17;;;;;;;;;63.25;44.00;;;;;;;;5034888;28;52808;-53
2022/02/04 03:43:01;;;;;;;;;62.50;45.00;;;;;;;;5041912;28;51638;-50
2022/02/04 03:45:46;;;;;;;;;54.75;42.00;;;;;;;;5032932;28;51328;-50
2022/02/04 03:48:30;;;;;;;;;57.25;42.00;;;;;;;;5056292;28;51579;-50
2022/02/04 03:51:15;;;;;;;;;56.25;43.25;;;;;;;;5057387;28;51279;-48
2022/02/04 03:53:59;;;;;;;;;53.50;42.50;;;;;;;;5062560;28;51682;-48
2022/02/04 03:56:44;;;;;;;;;58.75;43.75;;;;;;;;5049406;28;51151;-49
2022/02/04 03:59:28;;;;;;;;;58.00;43.25;;;;;;;;5050360;28;51173;-54
2022/02/04 04:02:13;;;;;;;;;55.75;44.00;;;;;;;;5053987;28;51200;-54
2022/02/04 04:04:58;;;;;;;;;59.75;43.50;;;;;;;;5058997;28;51240;-53
2022/02/04 04:07:46;;;;;;;;;60.00;43.50;;;;;;;;5048979;28;51655;-55
2022/02/04 04:10:38;;;;;;;;;58.25;44.50;;;;;;;;5050488;28;51093;-52
2022/02/04 04:13:22;;;;;;;;;53.50;40.75;;;;;;;;5050173;28;51424;-53
2022/02/04 04:16:06;;;;;;;;;51.50;40.00;;;;;;;;5056029;28;51068;-52
2022/02/04 04:18:51;;;;;;;;;53.25;41.50;;;;;;;;5052659;28;51595;-55
2022/02/04 04:21:35;;;;;;;;;51.50;39.00;;;;;;;;5048986;28;51199;-50
2022/02/04 04:24:20;;;;;;;;;52.75;43.00;;;;;;;;5058589;28;51004;-52
2022/02/04 04:27:04;;;;;;;;;56.25;41.50;;;;;;;;5059576;28;51556;-52
2022/02/04 04:29:48;;;;;;;;;61.50;43.75;;;;;;;;5058654;28;51227;-54
2022/02/04 04:32:33;;;;;;;;;55.50;42.00;;;;;;;;5055729;28;51123;-49
2022/02/04 04:35:19;;;;;;;;;57.50;43.00;;;;;;;;5060070;28;51188;-49
2022/02/04 04:38:22;;;;;;;;;52.25;40.50;;;;;;;;5054485;28;51101;-52
2022/02/04 05:25:55;;;;;;;;;52.50;41.25;;;;;;;;5045336;28;51104;-53
2022/02/04 05:29:25;;;;;;;;;65.25;50.75;;;;;;;;5028278;28;51233;-56
2022/02/04 05:32:09;;;;;;;;;78.50;63.00;;;;;;;;5039288;28;51541;-52
2022/02/04 05:34:54;;;;;;;;;81.75;75.75;;;;;;;;5023885;28;51518;-51
2022/02/04 05:37:43;;;;;;;;;94.00;81.00;;;;;;;;5033716;28;51458;-52
2022/02/04 05:40:31;;;;;;;;;89.75;75.25;;;;;;;;5035261;28;51147;-49
2022/02/04 05:43:25;;;;;;;;;91.75;77.75;;;;;;;;5024395;28;51126;-48
2022/02/04 05:46:19;;;;;;;;;99.50;82.50;;;;;;;;5029749;28;51027;-49
2022/02/04 05:49:04;;;;;;;;;117.50;101.25;;;;;;;;5056387;28;51127;-48
2022/02/04 05:54:55;;;;;;;;;113.25;103.25;;;;;;;;5052016;28;51139;-46
2022/02/04 05:58:15;;;;;;;;;110.25;95.25;;;;;;;;5057591;28;51363;-50
2022/02/04 06:00:52;;;;;;;;;124.50;101.75;;;;;;;;5053514;28;51294;-47
2022/02/04 06:12:51;;;;;;;;;102.00;92.25;;;;;;;;5053807;28;51113;-49
2022/02/04 06:24:42;;;;;;;;;91.00;78.25;;;;;;;;5048166;28;51327;-49
2022/02/04 06:27:27;;;;;;;;;90.75;78.25;;;;;;;;5057803;28;51164;-46
2022/02/04 06:30:12;;;;;;;;;91.50;80.75;;;;;;;;5059630;28;51109;-47
2022/02/04 06:32:56;;;;;;;;;100.50;86.25;;;;;;;;5058312;28;51110;-50
2022/02/04 06:35:41;;;;;;;;;82.50;78.75;;;;;;;;5058524;28;51020;-49
2022/02/04 06:38:26;;;;;;;;;79.75;66.50;;;;;;;;5057837;28;51095;-47
2022/02/04 06:41:10;;;;;;;;;87.50;78.25;;;;;;;;5052800;28;51415;-48
2022/02/04 06:43:55;;;;;;;;;88.00;74.25;;;;;;;;5050483;28;51141;-48
2022/02/04 06:46:39;;;;;;;;;88.00;77.00;;;;;;;;5053529;28;51129;-52
2022/02/04 06:49:24;;;;;;;;;113.50;95.50;;;;;;;;5021587;28;51543;-48
2022/02/04 06:52:08;;;;;;;;;103.25;86.25;;;;;;;;5024779;28;51093;-50
2022/02/04 06:54:53;;;;;;;;;97.25;81.50;;;;;;;;5032288;28;51122;-50
2022/02/04 06:57:37;;;;;;;;;84.75;74.00;;;;;;;;5034070;28;51539;-48
2022/02/04 07:00:25;;;;;;;;;86.50;78.00;;;;;;;;5035777;28;51097;-50
2022/02/04 07:03:09;;;;;;;;;92.25;81.00;;;;;;;;5034501;28;51072;-52
2022/02/04 07:05:56;;;;;;;;;89.00;78.25;;;;;;;;5025024;28;51243;-55
2022/02/04 07:09:12;;;;;;;;;92.00;75.25;;;;;;;;5018480;28;51399;-50
2022/02/04 07:12:19;;;;;;;;;80.25;69.25;;;;;;;;5011241;28;51197;-50
2022/02/04 07:18:00;;;;;;;;;91.00;80.25;;;;;;;;5033272;28;51159;-48
2022/02/04 07:20:45;;;;;;;;;85.75;76.50;;;;;;;;5029476;28;51543;-51
2022/02/04 07:23:29;;;;;;;;;88.75;74.75;;;;;;;;5019057;28;51037;-51
2022/02/04 07:26:14;;;;;;;;;88.25;76.75;;;;;;;;5021249;28;51380;-51
2022/02/04 07:29:03;;;;;;;;;79.75;69.75;;;;;;;;5033833;28;51115;-52
2022/02/04 07:31:49;;;;;;;;;77.50;63.00;;;;;;;;5035658;28;51085;-48
2022/02/04 07:35:00;;;;;;;;;76.75;62.75;;;;;;;;5022760;28;51114;-48
2022/02/04 07:40:54;;;;;;;;;80.25;66.00;;;;;;;;5026420;28;51159;-46
2022/02/04 07:43:40;;;;;;;;;86.25;74.75;;;;;;;;5026820;28;51157;-44
2022/02/04 07:46:24;;;;;;;;;81.25;63.00;;;;;;;;5022364;28;52047;-51
2022/02/04 07:49:09;;;;;;;;;75.50;61.75;;;;;;;;5020513;28;51096;-46
2022/02/04 07:51:53;;;;;;;;;77.25;61.00;;;;;;;;5036916;28;51087;-48
2022/02/04 07:54:37;;;;;;;;;78.25;65.50;;;;;;;;5025595;28;51148;-48
2022/02/04 07:57:21;;;;;;;;;78.75;64.00;;;;;;;;5027989;28;51075;-46
2022/02/04 08:00:06;;;;;;;;;78.00;60.50;;;;;;;;5020350;28;51098;-50
2022/02/04 08:02:51;;;;;;;;;77.25;64.50;;;;;;;;5022729;28;51118;-50
2022/02/04 08:05:36;;;;;;;;;79.75;68.00;;;;;;;;5018505;28;51187;-49
2022/02/04 08:08:28;;;;;;;;;76.75;67.50;;;;;;;;5018562;28;51121;-48
2022/02/04 08:11:45;;;;;;;;;81.25;67.00;;;;;;;;5019700;28;51322;-47
2022/02/04 08:21:31;;;;;;;;;76.50;62.00;;;;;;;;5027833;28;51061;-47
2022/02/04 08:53:52;;;;;;;;;73.75;61.00;;;;;;;;5013904;28;51044;-48
2022/02/04 08:57:01;;;;;;;;;78.50;66.00;;;;;;;;5050085;28;51286;-46
2022/02/04 09:02:39;;;;;;;;;77.25;65.25;;;;;;;;5060938;28;51279;-49
2022/02/04 09:05:32;;;;;;;;;80.50;66.00;;;;;;;;5061362;28;51086;-50
2022/02/04 09:08:28;;;;;;;;;73.50;63.25;;;;;;;;5061273;28;51010;-45
2022/02/04 09:11:40;;;;;;;;;76.50;62.00;;;;;;;;5045464;28;51338;-50
2022/02/04 09:17:55;;;;;;;;;69.75;52.50;;;;;;;;5050621;28;51153;-48
2022/02/04 09:21:48;;;;;;;;;71.00;54.25;;;;;;;;5056719;28;51195;-47
2022/02/04 09:23:44;;;;;;;;;69.50;51.75;;;;;;;;5052915;28;51071;-49
2022/02/04 09:26:29;;;;;;;;;63.50;47.25;;;;;;;;5051014;28;51572;-53
2022/02/04 09:29:13;;;;;;;;;65.00;50.00;;;;;;;;5040638;28;51049;-50
2022/02/04 09:31:58;;;;;;;;;70.50;54.00;;;;;;;;5045779;28;51459;-50
2022/02/04 09:34:42;;;;;;;;;60.75;47.50;;;;;;;;5040706;28;51384;-48
2022/02/04 09:37:27;;;;;;;;;54.50;42.00;;;;;;;;5056994;28;51126;-52
2022/02/04 09:40:11;;;;;;;;;61.50;46.25;;;;;;;;5052657;28;51469;-48
2022/02/04 09:42:56;;;;;;;;;59.25;45.50;;;;;;;;5043697;28;51568;-49
2022/02/04 09:45:40;;;;;;;;;60.25;45.50;;;;;;;;5040172;28;51061;-51
2022/02/04 09:48:24;;;;;;;;;60.50;43.50;;;;;;;;5058625;28;51050;-49
2022/02/04 09:51:10;;;;;;;;;52.00;40.00;;;;;;;;5049480;28;52654;-47
2022/02/04 10:07:02;;;;;;;;;54.50;43.25;;;;;;;;5055856;28;51445;-50
2022/02/04 10:13:09;;;;;;;;;57.50;42.25;;;;;;;;5059476;28;51057;-45
2022/02/04 10:16:22;;;;;;;;;52.25;38.75;;;;;;;;5060354;28;51086;-46
2022/02/04 10:19:15;;;;;;;;;54.25;42.00;;;;;;;;5059731;28;51097;-46
2022/02/04 10:22:00;;;;;;;;;43.50;32.50;;;;;;;;5059851;28;51163;-46
2022/02/04 10:24:53;;;;;;;;;50.50;37.25;;;;;;;;5054779;28;51674;-49
2022/02/04 10:27:37;;;;;;;;;51.25;40.25;;;;;;;;5053704;28;51212;-48
2022/02/04 10:30:21;;;;;;;;;51.75;39.50;;;;;;;;5040465;28;51355;-47
2022/02/04 10:33:06;;;;;;;;;58.00;43.75;;;;;;;;5056561;28;51388;-49
2022/02/04 10:35:51;;;;;;;;;55.25;42.25;;;;;;;;5046362;28;53272;-50
2022/02/04 10:38:41;;;;;;;;;52.25;40.50;;;;;;;;5059041;28;51067;-49
2022/02/04 10:41:31;;;;;;;;;49.25;37.00;;;;;;;;5057431;28;51206;-49
2022/02/04 10:44:26;;;;;;;;;52.25;41.25;;;;;;;;5046651;28;51145;-49
2022/02/04 10:47:11;;;;;;;;;56.75;40.00;;;;;;;;5052030;28;51172;-48
2022/02/04 10:50:08;;;;;;;;;52.25;38.75;;;;;;;;5059673;28;51552;-48
2022/02/04 10:53:18;;;;;;;;;48.00;39.50;;;;;;;;5058922;28;51058;-49
2022/02/04 10:59:27;;;;;;;;;47.00;38.75;;;;;;;;5046257;28;51137;-49
2022/02/04 11:02:20;;;;;;;;;55.50;43.00;;;;;;;;5044930;28;51658;-46
2022/02/04 11:05:13;;;;;;;;;59.25;46.50;;;;;;;;5058177;28;51237;-45
2022/02/04 11:22:01;;;;;;;;;56.75;43.75;;;;;;;;5051987;28;51141;-48
2022/02/04 11:33:45;;;;;;;;;55.50;41.75;;;;;;;;5048492;28;51097;-46
2022/02/04 11:36:08;;;;;;;;;53.25;41.25;;;;;;;;5045592;28;51562;-49
2022/02/04 11:49:37;;;;;;;;;51.75;39.00;;;;;;;;5050964;28;51219;-53
2022/02/04 11:51:46;;;;;;;;;53.75;41.25;;;;;;;;5047694;28;51068;-49
2022/02/04 11:54:32;;;;;;;;;53.50;39.00;;;;;;;;5058157;28;51128;-48
2022/02/04 11:57:18;;;;;;;;;52.75;38.75;;;;;;;;5052531;28;51598;-51
2022/02/04 12:00:12;;;;;;;;;48.75;38.25;;;;;;;;5047899;28;51194;-50
2022/02/04 12:02:56;;;;;;;;;51.25;40.50;;;;;;;;5054209;28;51141;-48
2022/02/04 12:05:46;;;;;;;;;210.00;184.00;;;;;;;;5056236;28;51362;-45
2022/02/04 12:08:31;;;;;;;;;58.25;43.50;;;;;;;;5051396;28;51186;-45
2022/02/04 12:11:18;;;;;;;;;59.50;44.50;;;;;;;;5050830;28;52036;-47
2022/02/04 12:14:07;;;;;;;;;230.50;193.00;;;;;;;;5031618;28;51231;-45
2022/02/04 12:17:01;;;;;;;;;62.75;47.50;;;;;;;;4988106;28;51130;-46
2022/02/04 12:19:52;;;;;;;;;64.75;48.75;;;;;;;;5050500;28;51444;-52
2022/02/04 12:22:50;;;;;;;;;59.00;43.75;;;;;;;;5015213;28;51153;-45
2022/02/04 12:26:06;;;;;;;;;54.75;41.75;;;;;;;;5050399;28;51136;-48
2022/02/04 12:28:58;;;;;;;;;58.25;43.25;;;;;;;;5042931;28;52258;-51
2022/02/04 12:31:44;;;;;;;;;52.00;37.25;;;;;;;;5053776;28;51153;-51
2022/02/04 12:34:29;;;;;;;;;46.75;36.75;;;;;;;;5050743;28;51101;-48
2022/02/04 12:37:18;;;;;;;;;51.50;40.25;;;;;;;;5049415;28;51225;-50
2022/02/04 12:40:07;;;;;;;;;51.75;40.00;;;;;;;;5047365;28;51194;-48
2022/02/04 12:42:52;;;;;;;;;54.75;41.00;;;;;;;;5045077;28;51250;-49
2022/02/04 12:48:30;;;;;;;;;49.25;39.75;;;;;;;;4892117;22;53107;-52
2022/02/04 12:51:28;;;;;;;;;51.50;40.00;;;;;;;;5060938;28;51156;-53
2022/02/04 12:54:13;;;;;;;;;43.00;37.25;;;;;;;;5053369;28;51172;-57
2022/02/04 12:57:26;;;;;;;;;48.25;39.75;;;;;;;;5051633;28;51446;-51
2022/02/04 13:03:04;;;;;;;;;54.75;41.75;;;;;;;;5070172;27;51132;-49
2022/02/04 13:09:32;;;;;;;;;48.75;38.50;;;;;;;;5058527;28;51041;-53
2022/02/04 13:12:05;;;;;;;;;48.75;37.75;;;;;;;;5060490;28;51094;-48
2022/02/04 13:14:50;;;;;;;;;51.75;41.00;;;;;;;;5059641;28;51181;-58
2022/02/04 13:17:38;;;;;;;;;56.25;39.75;;;;;;;;5058871;28;51077;-49
2022/02/04 13:20:23;;;;;;;;;52.75;41.25;;;;;;;;5060742;28;51176;-49
2022/02/04 13:23:09;;;;;;;;;52.25;39.50;;;;;;;;5059085;28;51030;-52
2022/02/04 13:25:57;;;;;;;;;50.25;38.25;;;;;;;;5057269;28;51056;-49
2022/02/04 13:28:45;;;;;;;;;51.25;40.50;;;;;;;;5027459;28;51637;-50
2022/02/04 13:31:31;;;;;;;;;54.50;40.25;;;;;;;;5056105;28;51275;-54
2022/02/04 13:34:17;;;;;;;;;52.75;41.50;;;;;;;;5057494;28;51136;-54
2022/02/04 13:37:05;;;;;;;;;53.00;41.00;;;;;;;;5055191;28;51867;-53
2022/02/04 13:40:04;;;;;;;;;54.75;40.25;;;;;;;;5055514;28;51169;-52
2022/02/04 13:42:54;;;;;;;;;50.50;41.25;;;;;;;;5052736;28;51119;-49
2022/02/04 13:45:45;;;;;;;;;54.75;40.75;;;;;;;;5042666;28;51211;-53
2022/02/04 13:48:55;;;;;;;;;51.75;39.75;;;;;;;;5054780;28;51580;-50
2022/02/04 13:51:58;;;;;;;;;59.00;42.75;;;;;;;;5056666;28;51201;-49
2022/02/04 13:54:56;;;;;;;;;54.50;39.50;;;;;;;;5041826;28;51718;-52
2022/02/04 13:57:53;;;;;;;;;53.75;43.25;;;;;;;;5056608;28;51187;-57
2022/02/04 14:01:21;;;;;;;;;60.50;43.00;;;;;;;;5057688;28;51133;-51
2022/02/04 14:04:06;;;;;;;;;55.75;40.50;;;;;;;;5053922;28;51182;-54
2022/02/04 14:07:05;;;;;;;;;53.50;40.00;;;;;;;;5058512;28;51201;-53
2022/02/04 14:09:57;;;;;;;;;53.25;42.25;;;;;;;;5053516;28;51181;-52
2022/02/04 14:12:42;;;;;;;;;52.25;40.25;;;;;;;;5057048;28;51124;-50
2022/02/04 14:15:27;;;;;;;;;43.50;36.75;;;;;;;;5057612;28;51513;-50
2022/02/04 14:18:12;;;;;;;;;53.00;43.00;;;;;;;;5057484;28;51165;-49
2022/02/04 14:20:57;;;;;;;;;55.25;41.50;;;;;;;;5053752;28;51646;-47
2022/02/04 14:26:36;;;;;;;;;58.75;43.25;;;;;;;;5029205;22;51714;-51
2022/02/04 14:29:28;;;;;;;;;54.75;43.50;;;;;;;;5035226;28;51504;-51
2022/02/04 14:32:23;;;;;;;;;57.75;43.50;;;;;;;;5037580;28;51253;-49
2022/02/04 14:59:07;;;;;;;;;54.00;40.75;;;;;;;;5038082;28;51647;-51
2022/02/04 15:02:05;;;;;;;;;56.00;41.50;;;;;;;;5037838;28;51109;-56
2022/02/04 15:04:51;;;;;;;;;56.50;42.25;;;;;;;;5033842;28;51254;-56
2022/02/04 15:07:38;;;;;;;;;49.25;37.25;;;;;;;;5036495;28;51033;-51
2022/02/04 15:10:29;;;;;;;;;56.25;41.00;;;;;;;;5034993;28;51159;-54
2022/02/04 15:13:15;;;;;;;;;51.75;36.25;;;;;;;;5037674;28;51552;-53
2022/02/04 15:16:02;;;;;;;;;49.75;39.00;;;;;;;;5037584;28;51080;-57
2022/02/04 15:18:46;;;;;;;;;53.75;42.00;;;;;;;;5038394;28;51170;-54
2022/02/04 15:21:32;;;;;;;;;54.00;39.00;;;;;;;;5039806;28;51220;-54
2022/02/04 15:24:16;;;;;;;;;53.75;41.00;;;;;;;;5040679;28;51664;-54
2022/02/04 15:27:01;;;;;;;;;55.50;41.00;;;;;;;;5038892;28;51100;-58
2022/02/04 15:29:48;;;;;;;;;53.50;39.50;;;;;;;;5041932;28;52360;-54
2022/02/04 15:32:32;;;;;;;;;45.50;37.75;;;;;;;;5012310;28;51152;-52
2022/02/04 15:35:17;;;;;;;;;52.25;39.00;;;;;;;;5041519;28;51164;-58
2022/02/04 15:38:01;;;;;;;;;47.00;34.50;;;;;;;;5040703;28;51207;-57
2022/02/04 15:40:46;;;;;;;;;50.50;36.50;;;;;;;;5038953;28;51512;-57
2022/02/04 15:43:31;;;;;;;;;51.00;38.50;;;;;;;;5040702;28;51210;-57
2022/02/04 15:49:29;;;;;;;;;46.50;37.25;;;;;;;;5042257;28;51786;-52
2022/02/04 15:58:19;;;;;;;;;52.25;39.50;;;;;;;;5037374;28;51215;-50
2022/02/04 16:04:01;;;;;;;;;48.75;39.00;;;;;;;;5038611;28;51894;-55
2022/02/04 16:06:46;;;;;;;;;48.25;37.25;;;;;;;;5038589;28;51176;-56
2022/02/04 16:09:31;;;;;;;;;44.25;32.25;;;;;;;;5039585;28;51338;-54
2022/02/04 16:12:25;;;;;;;;;50.75;38.00;;;;;;;;5040226;28;51140;-51
2022/02/04 16:15:21;;;;;;;;;49.00;36.75;;;;;;;;5039750;28;51697;-55
2022/02/04 16:18:14;;;;;;;;;52.25;38.00;;;;;;;;5036057;28;51244;-50
2022/02/04 16:21:10;;;;;;;;;49.50;38.50;;;;;;;;5036331;28;51199;-53
2022/02/04 16:24:13;;;;;;;;;52.50;39.00;;;;;;;;5039035;28;51601;-58
2022/02/04 16:27:11;;;;;;;;;52.25;39.00;;;;;;;;5039440;28;51147;-53
2022/02/04 16:29:55;;;;;;;;;50.00;39.00;;;;;;;;5039164;28;51679;-53
2022/02/04 16:32:39;;;;;;;;;44.50;36.00;;;;;;;;5037910;28;51192;-53
2022/02/04 16:35:24;;;;;;;;;49.75;37.50;;;;;;;;5037887;28;51661;-51
2022/02/04 16:38:16;;;;;;;;;50.50;37.75;;;;;;;;5037944;28;51510;-49
2022/02/04 16:41:06;;;;;;;;;49.25;37.75;;;;;;;;5038484;28;51764;-51
2022/02/04 16:43:50;;;;;;;;;49.25;37.50;;;;;;;;5037956;28;51261;-55
2022/02/04 16:46:35;;;;;;;;;51.00;39.50;;;;;;;;5038446;28;51438;-49
2022/02/04 16:49:19;;;;;;;;;51.25;37.25;;;;;;;;5029716;28;51069;-52
2022/02/04 16:52:05;;;;;;;;;54.00;40.50;;;;;;;;5033778;28;51092;-55
2022/02/04 16:54:49;;;;;;;;;50.50;36.50;;;;;;;;5037234;28;51636;-51
2022/02/04 16:57:34;;;;;;;;;49.00;38.50;;;;;;;;5036761;28;51191;-52
2022/02/04 17:00:22;;;;;;;;;45.25;37.50;;;;;;;;5035218;28;51532;-52
2022/02/04 17:03:09;;;;;;;;;44.75;31.50;;;;;;;;5036814;28;51191;-52
2022/02/04 17:05:57;;;;;;;;;52.50;38.25;;;;;;;;5032637;28;51652;-53
2022/02/04 17:08:57;;;;;;;;;46.75;35.75;;;;;;;;5036684;28;51118;-52
2022/02/04 17:11:46;;;;;;;;;48.25;38.00;;;;;;;;5035900;28;51159;-51
2022/02/04 17:14:31;;;;;;;;;51.50;37.75;;;;;;;;5036885;28;51524;-52
2022/02/04 17:17:16;;;;;;;;;45.50;38.25;;;;;;;;5034991;28;51226;-53
2022/02/04 17:20:08;;;;;;;;;50.00;36.00;;;;;;;;5037207;28;51197;-51
2022/02/04 17:22:53;;;;;;;;;55.25;37.50;;;;;;;;5035856;28;51147;-55
2022/02/04 17:25:39;;;;;;;;;43.50;33.75;;;;;;;;5036074;28;51124;-55
2022/02/04 17:28:26;;;;;;;;;53.25;39.25;;;;;;;;5036898;28;51227;-48
2022/02/04 17:31:11;;;;;;;;;48.75;38.00;;;;;;;;5037055;28;51684;-52
2022/02/04 17:33:55;;;;;;;;;47.25;37.25;;;;;;;;5034266;28;51226;-50
2022/02/04 17:36:40;;;;;;;;;46.75;35.25;;;;;;;;5036642;28;51212;-52
2022/02/04 17:39:26;;;;;;;;;46.75;37.50;;;;;;;;5035308;28;51532;-57
2022/02/04 17:42:11;;;;;;;;;58.00;42.00;;;;;;;;5033703;28;51293;-50
2022/02/04 17:44:55;;;;;;;;;47.25;36.50;;;;;;;;5015331;28;51132;-52
2022/02/04 17:47:40;;;;;;;;;37.25;33.50;;;;;;;;5016071;28;51096;-55
2022/02/04 17:50:30;;;;;;;;;46.00;34.25;;;;;;;;5017433;28;51480;-54
2022/02/04 17:53:19;;;;;;;;;44.75;35.75;;;;;;;;5014846;28;51795;-52
2022/02/04 17:56:17;;;;;;;;;44.50;35.75;;;;;;;;5019349;28;51191;-52
2022/02/04 17:59:34;;;;;;;;;45.25;36.75;;;;;;;;5018775;28;51093;-52
2022/02/04 18:05:28;;;;;;;;;48.00;38.75;;;;;;;;5015928;28;51403;-51
2022/02/04 18:08:13;;;;;;;;;49.00;39.75;;;;;;;;5015926;28;51266;-46
2022/02/04 18:11:03;;;;;;;;;51.25;37.25;;;;;;;;5015113;28;51879;-51
2022/02/04 18:13:47;;;;;;;;;50.25;38.75;;;;;;;;5011420;28;51202;-55
2022/02/04 18:16:32;;;;;;;;;54.50;40.00;;;;;;;;5014638;28;51556;-55
2022/02/04 18:19:16;;;;;;;;;49.75;38.25;;;;;;;;5016043;28;51551;-54
2022/02/04 18:22:01;;;;;;;;;49.50;39.25;;;;;;;;5016277;28;51633;-52
2022/02/04 18:24:46;;;;;;;;;50.75;38.00;;;;;;;;5016023;28;51488;-54
2022/02/04 18:27:30;;;;;;;;;50.25;37.50;;;;;;;;5012092;28;51244;-57
2022/02/04 18:30:16;;;;;;;;;48.00;37.75;;;;;;;;5014043;28;51835;-51
2022/02/04 18:33:01;;;;;;;;;51.50;38.25;;;;;;;;5017076;28;51420;-49
2022/02/04 18:35:50;;;;;;;;;49.75;37.25;;;;;;;;5012362;28;51190;-52
2022/02/04 18:38:44;;;;;;;;;49.00;38.50;;;;;;;;5017332;28;51116;-53
2022/02/04 18:45:07;;;;;;;;;51.25;40.00;;;;;;;;5017408;28;51231;-51
2022/02/04 18:47:59;;;;;;;;;45.25;35.50;;;;;;;;5018264;28;51351;-54
2022/02/04 18:51:18;;;;;;;;;53.75;39.25;;;;;;;;5016394;28;51112;-58
2022/02/04 18:54:14;;;;;;;;;55.00;42.50;;;;;;;;5015658;28;51244;-51
2022/02/04 18:59:58;;;;;;;;;51.25;38.50;;;;;;;;5017121;28;51157;-51
2022/02/04 19:02:46;;;;;;;;;49.50;35.00;;;;;;;;5014020;28;51217;-48
2022/02/04 19:05:36;;;;;;;;;49.25;38.75;;;;;;;;5014473;28;51199;-56
2022/02/04 19:08:27;;;;;;;;;52.00;38.25;;;;;;;;5015802;28;51218;-49
2022/02/04 19:11:15;;;;;;;;;50.50;38.25;;;;;;;;5016455;28;51088;-57
2022/02/04 19:14:04;;;;;;;;;50.50;35.50;;;;;;;;5015395;28;51714;-50
2022/02/04 19:17:07;;;;;;;;;47.00;34.25;;;;;;;;5015819;28;51099;-50
2022/02/04 19:20:03;;;;;;;;;52.25;37.75;;;;;;;;5012620;28;51047;-56
2022/02/04 19:22:55;;;;;;;;;46.75;36.25;;;;;;;;5012883;28;51458;-54
2022/02/04 19:25:41;;;;;;;;;45.75;36.00;;;;;;;;5013695;28;51106;-51
2022/02/04 19:28:27;;;;;;;;;48.25;38.50;;;;;;;;5015383;28;51325;-54
2022/02/04 19:31:12;;;;;;;;;47.75;38.50;;;;;;;;5016161;28;51214;-52
2022/02/04 19:33:56;;;;;;;;;48.00;35.75;;;;;;;;5014894;28;51159;-54
2022/02/04 19:36:41;;;;;;;;;50.25;39.00;;;;;;;;5015776;28;51099;-49
2022/02/04 19:39:28;;;;;;;;;53.00;38.00;;;;;;;;5015870;28;51201;-54
2022/02/04 19:42:28;;;;;;;;;52.75;37.00;;;;;;;;5015993;28;51222;-53
2022/02/04 19:45:19;;;;;;;;;49.75;38.25;;;;;;;;4991258;28;51218;-57
2022/02/04 19:48:09;;;;;;;;;48.00;35.00;;;;;;;;4991828;28;51108;-53
2022/02/04 20:13:23;;;;;;;;;50.75;38.25;;;;;;;;4994265;28;51154;-50
2022/02/04 20:23:35;;;;;;;;;8.75;0.75;;;;;;;;4993506;28;51237;-56
2022/02/04 20:25:00;;;;;;;;;52.50;39.25;;;;;;;;4993186;28;51319;-56
2022/02/04 20:27:45;;;;;;;;;54.00;39.75;;;;;;;;4996481;28;51551;-55
2022/02/04 20:30:29;;;;;;;;;56.50;38.75;;;;;;;;4987157;28;51182;-54
2022/02/04 20:33:14;;;;;;;;;49.00;38.75;;;;;;;;4998597;28;51231;-52
2022/02/04 20:35:59;;;;;;;;;53.50;41.25;;;;;;;;4980083;28;51189;-60
2022/02/04 20:38:50;;;;;;;;;53.25;41.00;;;;;;;;4985221;28;51141;-59
2022/02/04 20:41:35;;;;;;;;;54.00;41.00;;;;;;;;4981461;28;51117;-59
2022/02/04 20:44:19;;;;;;;;;53.75;41.25;;;;;;;;5027240;28;51063;-59
2022/02/04 20:47:04;;;;;;;;;53.00;41.25;;;;;;;;5039089;28;51432;-60
2022/02/04 20:49:48;;;;;;;;;55.75;41.50;;;;;;;;5038641;28;51179;-59
2022/02/04 20:52:33;;;;;;;;;54.67;43.67;;;;;;;;5033330;28;51436;-60
2022/02/04 20:55:17;;;;;;;;;55.00;43.75;;;;;;;;5037511;28;51406;-59
2022/02/04 20:58:01;;;;;;;;;47.00;38.50;;;;;;;;5038196;28;51762;-59
2022/02/04 21:00:46;;;;;;;;;52.75;40.75;;;;;;;;5036851;28;51201;-60
2022/02/04 21:03:35;;;;;;;;;48.50;34.75;;;;;;;;5036129;28;51290;-60
2022/02/04 21:15:15;;;;;;;;;52.00;40.50;;;;;;;;5038047;28;51192;-59
2022/02/04 21:18:03;;;;;;;;;54.75;41.50;;;;;;;;5037530;28;51658;-61
2022/02/04 21:20:47;;;;;;;;;53.25;40.50;;;;;;;;5037066;28;51425;-59
2022/02/04 21:23:32;;;;;;;;;51.50;39.25;;;;;;;;5037867;28;51118;-60
2022/02/04 21:26:16;;;;;;;;;52.00;41.00;;;;;;;;5037628;28;51231;-60
2022/02/04 21:29:01;;;;;;;;;56.00;42.25;;;;;;;;5021429;28;51144;-59
2022/02/04 21:31:48;;;;;;;;;55.50;39.75;;;;;;;;5037517;28;51526;-60
2022/02/04 21:37:23;;;;;;;;;53.25;38.50;;;;;;;;5036311;28;51469;-59
2022/02/04 21:40:09;;;;;;;;;52.00;39.00;;;;;;;;5037064;28;51204;-60
2022/02/04 21:42:54;;;;;;;;;55.75;42.25;;;;;;;;5033729;28;51213;-59
2022/02/04 21:45:41;;;;;;;;;48.25;37.50;;;;;;;;5037422;28;51529;-60
2022/02/04 21:48:26;;;;;;;;;49.50;36.50;;;;;;;;5036539;28;51641;-60
2022/02/04 21:51:11;;;;;;;;;50.50;39.50;;;;;;;;5036703;28;51184;-60
2022/02/04 21:53:55;;;;;;;;;50.75;37.25;;;;;;;;5037340;28;52119;-59
2022/02/04 21:56:40;;;;;;;;;52.50;41.25;;;;;;;;5020204;28;51241;-59
2022/02/04 21:59:24;;;;;;;;;36.00;29.50;;;;;;;;5037764;28;51637;-60
2022/02/04 22:02:09;;;;;;;;;51.00;38.75;;;;;;;;5036554;28;51335;-60
2022/02/04 22:04:57;;;;;;;;;51.75;38.25;;;;;;;;5036526;28;51148;-59
2022/02/04 22:07:50;;;;;;;;;51.00;38.50;;;;;;;;5035460;28;51903;-60
2022/02/04 22:10:54;;;;;;;;;49.75;36.25;;;;;;;;5033917;28;51472;-61
2022/02/04 22:13:54;;;;;;;;;49.00;39.00;;;;;;;;5035313;28;51187;-60